Time;durP1;ratioP1;P1;durP2;ratioP2;P2;SDS_P1;SDS_P2;PMS_P1;PMS_P2;Temp;Humidity;BMP_temperature;BMP_pressure;BME280_temperature;BME280_humidity;BME280_pressure;Samples;Min_cycle;Max_cycle;Signal;HPM_P1;HPM_P2
2021/04/21 00:01:42;;;;;;;4.97;2.50;;;;;;;11.46;59.39;98009.09;5078341;28;45477;-82
2021/04/21 00:04:09;;;;;;;3.45;2.40;;;;;;;11.59;61.39;98001.41;5074591;28;47940;-82
2021/04/21 00:06:37;;;;;;;5.68;2.80;;;;;;;11.89;53.39;97991.00;5058287;27;45414;-82
2021/04/21 00:09:07;;;;;;;3.95;2.75;;;;;;;11.95;57.37;98005.50;5057768;28;45204;-81
2021/04/21 00:11:34;;;;;;;3.55;2.60;;;;;;;12.00;55.01;98011.19;5057865;28;45300;-82
2021/04/21 00:14:00;;;;;;;3.10;2.22;;;;;;;12.03;55.91;98008.19;5095232;27;48406;-82
2021/04/21 00:16:28;;;;;;;3.95;2.55;;;;;;;12.14;52.17;98008.81;5069023;27;45457;-81
2021/04/21 00:18:55;;;;;;;3.28;2.45;;;;;;;12.11;57.03;98004.66;5057958;28;45438;-82
2021/04/21 00:21:24;;;;;;;3.72;2.47;;;;;;;12.02;54.70;98006.50;5063010;28;45376;-82
2021/04/21 00:23:51;;;;;;;3.42;2.53;;;;;;;11.96;53.68;98001.84;5070892;28;46389;-82
2021/04/21 00:26:22;;;;;;;4.03;2.40;;;;;;;12.13;53.05;98012.47;5057943;28;45572;-81
2021/04/21 00:28:51;;;;;;;3.75;2.30;;;;;;;12.19;53.33;98007.31;5071095;28;45257;-82
2021/04/21 00:31:18;;;;;;;3.78;2.30;;;;;;;12.05;54.19;98006.16;5073686;28;45364;-82
2021/04/21 00:33:46;;;;;;;2.85;2.10;;;;;;;11.99;56.38;98006.00;5077432;27;45269;-82
2021/04/21 00:36:14;;;;;;;4.32;2.55;;;;;;;11.90;53.89;97997.19;5078160;27;45483;-82
2021/04/21 00:38:41;;;;;;;3.30;2.50;;;;;;;11.97;55.36;98004.34;5058143;27;45290;-83
2021/04/21 00:41:15;;;;;;;3.58;2.38;;;;;;;11.85;56.91;98007.53;5065683;28;45647;-82
2021/04/21 00:43:51;;;;;;;3.47;2.13;;;;;;;11.77;59.18;98006.56;5064753;28;46460;-82
2021/04/21 00:46:24;;;;;;;4.57;2.50;;;;;;;11.71;57.50;98004.56;5062261;27;45497;-82
2021/04/21 00:49:05;;;;;;;4.18;2.60;;;;;;;11.65;60.79;98006.06;5057704;28;45361;-82
2021/04/21 00:51:54;;;;;;;3.47;2.45;;;;;;;11.50;58.95;98003.28;5057515;28;45334;-82
2021/04/21 00:54:33;;;;;;;4.78;2.67;;;;;;;11.47;58.42;98003.56;5057159;28;46300;-82
2021/04/21 00:57:18;;;;;;;3.80;2.63;;;;;;;11.50;58.41;98000.59;5057478;28;45228;-81
2021/04/21 00:59:49;;;;;;;3.83;2.58;;;;;;;11.51;58.79;98006.75;5063193;28;45341;-81
2021/04/21 01:02:17;;;;;;;3.78;2.90;;;;;;;11.48;60.60;98001.75;5065606;28;45349;-81
2021/04/21 01:04:43;;;;;;;3.97;3.00;;;;;;;11.43;59.67;98009.41;5057121;28;45653;-81
2021/04/21 01:07:11;;;;;;;4.97;3.13;;;;;;;11.43;59.93;98006.75;5072787;28;45271;-82
2021/04/21 01:09:39;;;;;;;5.38;2.85;;;;;;;11.35;59.31;98011.09;5061385;27;45339;-82
2021/04/21 01:12:10;;;;;;;4.93;3.15;;;;;;;11.37;59.09;98008.25;5060612;28;45501;-82
2021/04/21 01:14:40;;;;;;;5.88;3.38;;;;;;;11.48;61.98;98013.22;5087585;27;46612;-82
2021/04/21 01:17:11;;;;;;;5.87;3.40;;;;;;;11.41;61.08;98009.56;5066322;27;45438;-82
2021/04/21 01:19:44;;;;;;;3.97;2.78;;;;;;;11.29;60.46;98014.41;5063100;28;45371;-82
2021/04/21 01:22:28;;;;;;;4.45;2.42;;;;;;;11.25;60.81;98010.44;5063205;28;45299;-82
2021/04/21 01:25:07;;;;;;;3.83;2.33;;;;;;;11.25;60.31;98010.44;5064260;28;48432;-82
2021/04/21 01:27:45;;;;;;;3.95;2.58;;;;;;;11.08;62.08;98006.91;5072977;28;45494;-82
2021/04/21 01:30:13;;;;;;;3.88;2.30;;;;;;;11.04;61.45;98009.06;5068639;28;45232;-82
2021/04/21 01:32:43;;;;;;;3.13;2.25;;;;;;;11.07;60.65;98014.09;5060423;28;45276;-82
2021/04/21 01:35:09;;;;;;;4.90;2.38;;;;;;;11.03;62.30;98007.41;5064971;27;46597;-82
2021/04/21 01:37:36;;;;;;;3.95;2.10;;;;;;;11.18;62.03;98009.44;5077387;27;45332;-82
2021/04/21 01:40:08;;;;;;;4.22;2.20;;;;;;;11.18;62.36;98014.75;5080484;27;45424;-82
2021/04/21 01:42:37;;;;;;;3.58;2.22;;;;;;;11.15;60.80;98013.25;5063551;27;45384;-81
2021/04/21 01:45:03;;;;;;;2.88;2.30;;;;;;;11.02;61.81;98010.25;5064757;28;46427;-82
2021/04/21 01:47:29;;;;;;;3.08;2.30;;;;;;;11.04;60.43;98019.69;5060264;28;45269;-82
2021/04/21 01:50:05;;;;;;;3.13;2.28;;;;;;;11.02;62.00;98019.03;5060509;28;45288;-82
2021/04/21 01:52:39;;;;;;;4.28;2.38;;;;;;;10.93;63.17;98020.88;5060413;28;45365;-82
2021/04/21 01:55:16;;;;;;;3.50;2.33;;;;;;;10.89;62.83;98030.19;5064213;28;45476;-82
2021/04/21 01:57:57;;;;;;;4.00;2.60;;;;;;;10.86;61.40;98037.63;5067444;28;45257;-82
2021/04/21 02:00:35;;;;;;;3.80;2.70;;;;;;;10.82;62.24;98039.81;5068633;28;45173;-82
2021/04/21 02:03:15;;;;;;;4.07;2.40;;;;;;;10.82;62.46;98045.13;5063593;28;45415;-82
2021/04/21 02:05:53;;;;;;;;;;;;;;;10.74;62.88;98050.44;5061451;28;46194;-81
2021/04/21 02:08:57;;;;;;;3.28;2.50;;;;;;;10.82;61.80;98049.59;5060065;28;45433;-81
2021/04/21 02:11:26;;;;;;;4.50;2.75;;;;;;;10.90;59.76;98050.47;5059631;28;45228;-81
2021/04/21 02:14:35;;;;;;;5.75;3.10;;;;;;;11.04;59.39;98051.63;5071410;27;45277;-81
2021/04/21 02:17:19;;;;;;;3.72;3.03;;;;;;;10.91;61.46;98052.13;5071116;28;47549;-81
2021/04/21 02:20:06;;;;;;;5.00;2.80;;;;;;;10.76;63.37;98057.22;5063756;28;45355;-82
2021/04/21 02:22:58;;;;;;;4.82;2.42;;;;;;;10.75;62.78;98054.75;5073437;28;45430;-82
2021/04/21 02:25:46;;;;;;;3.53;2.63;;;;;;;10.82;62.14;98057.56;5059562;28;45260;-82
2021/04/21 02:28:23;;;;;;;3.92;2.70;;;;;;;10.82;61.04;98057.56;5065586;28;45445;-82
2021/04/21 02:31:12;;;;;;;4.05;2.42;;;;;;;10.88;62.59;98068.41;5059566;28;45423;-82
2021/04/21 02:33:52;;;;;;;4.05;2.53;;;;;;;10.76;61.39;98065.22;5059793;28;45360;-82
2021/04/21 02:36:28;;;;;;;3.37;2.10;;;;;;;10.86;63.53;98059.75;5073839;27;45192;-82
2021/04/21 02:38:59;;;;;;;3.28;2.22;;;;;;;10.82;63.89;98063.75;5063583;27;45287;-82
2021/04/21 02:41:41;;;;;;;3.58;2.65;;;;;;;10.84;62.78;98058.25;5059959;28;45526;-82
2021/04/21 02:44:20;;;;;;;3.92;2.70;;;;;;;10.96;62.16;98059.59;5059325;28;45309;-82
2021/04/21 02:46:55;;;;;;;5.55;2.95;;;;;;;11.03;62.35;98065.13;5059312;28;45346;-83
2021/04/21 02:49:35;;;;;;;3.58;2.92;;;;;;;11.11;62.15;98070.44;5059429;28;45372;-82
2021/04/21 02:52:05;;;;;;;4.60;2.55;;;;;;;11.17;61.32;98066.31;5059213;28;45333;-82
2021/04/21 02:54:47;;;;;;;5.35;2.90;;;;;;;11.10;63.31;98071.44;5059087;28;45258;-82
2021/04/21 02:57:28;;;;;;;3.88;2.80;;;;;;;11.01;63.75;98070.59;5066186;28;45454;-82
2021/04/21 03:00:03;;;;;;;5.00;3.33;;;;;;;11.09;62.96;98061.81;5063181;28;45301;-82
2021/04/21 03:02:35;;;;;;;5.00;3.17;;;;;;;11.00;63.82;98074.25;5057765;28;45456;-82
2021/04/21 03:05:23;;;;;;;4.53;2.97;;;;;;;11.13;63.85;98078.28;5059143;28;45408;-82
2021/04/21 03:08:07;;;;;;;6.97;3.10;;;;;;;10.98;64.15;98078.91;5059150;28;45439;-83
2021/04/21 03:10:42;;;;;;;5.30;3.33;;;;;;;11.00;64.15;98076.91;5058820;28;45999;-83
2021/04/21 03:13:20;;;;;;;5.93;3.70;;;;;;;10.92;65.91;98082.22;5068159;27;45410;-82
2021/04/21 03:16:00;;;;;;;4.30;3.45;;;;;;;10.67;68.14;98082.13;5086391;27;45291;-82
2021/04/21 03:18:27;;;;;;;;;;;;;;;10.73;69.38;98092.13;5068480;28;45310;-83
2021/04/21 03:20:58;;;;;;;5.72;3.72;;;;;;;10.73;69.38;98086.81;5063179;27;45313;-82
2021/04/21 03:23:26;;;;;;;5.88;4.45;;;;;;;10.74;72.04;98085.81;5071226;27;45434;-82
2021/04/21 03:25:56;;;;;;;6.07;4.40;;;;;;;10.71;72.85;98083.47;5058772;28;45280;-82
2021/04/21 03:28:23;;;;;;;6.63;3.95;;;;;;;10.71;72.56;98087.97;5065868;28;45461;-81
2021/04/21 03:30:53;;;;;;;4.78;3.50;;;;;;;10.45;73.97;98097.69;5062976;27;46176;-81
2021/04/21 03:33:47;;;;;;;5.18;3.97;;;;;;;10.34;73.52;98093.44;5057385;28;45721;-81
2021/04/21 03:36:19;;;;;;;4.55;3.33;;;;;;;10.50;74.77;98086.56;5070655;27;45228;-81
2021/04/21 03:38:47;;;;;;;5.38;3.83;;;;;;;10.41;74.19;98088.34;5064069;27;45313;-81
2021/04/21 03:41:13;;;;;;;4.97;3.97;;;;;;;10.35;74.90;98088.97;5058430;28;46078;-81
2021/04/21 03:43:40;;;;;;;5.60;3.78;;;;;;;9.95;75.74;98095.69;5058417;28;45285;-80
2021/04/21 03:46:07;;;;;;;5.80;3.80;;;;;;;10.13;75.44;98087.66;5062379;28;45524;-80
2021/04/21 03:48:34;;;;;;;6.10;4.18;;;;;;;10.21;76.91;98090.38;5070640;28;45332;-80
2021/04/21 03:51:00;;;;;;;6.00;3.90;;;;;;;10.33;73.95;98090.94;5058336;28;45398;-81
2021/04/21 03:53:35;;;;;;;6.32;4.15;;;;;;;10.22;75.52;98092.03;5058003;28;45451;-80
2021/04/21 03:56:02;;;;;;;5.97;4.20;;;;;;;10.14;75.76;98089.34;5068637;28;45267;-80
2021/04/21 03:58:29;;;;;;;6.03;3.95;;;;;;;10.05;74.82;98091.09;5061365;27;45212;-80
2021/04/21 04:01:04;;;;;;;5.80;4.20;;;;;;;10.12;77.05;98089.47;5064201;28;48140;-81
2021/04/21 04:03:31;;;;;;;5.47;3.72;;;;;;;10.16;76.24;98096.19;5071501;28;45376;-80
2021/04/21 04:06:03;;;;;;;5.68;3.95;;;;;;;10.06;75.51;98100.72;5071155;28;45336;-80
2021/04/21 04:08:35;;;;;;;4.93;3.58;;;;;;;10.10;75.65;98088.81;5057855;27;45520;-81
2021/04/21 04:11:02;;;;;;;6.05;3.88;;;;;;;10.20;75.33;98092.22;5056594;28;47244;-81
2021/04/21 04:13:32;;;;;;;5.57;4.07;;;;;;;10.12;77.80;98089.47;5072923;27;45553;-80
2021/04/21 04:15:59;;;;;;;4.90;3.70;;;;;;;10.10;76.64;98086.16;5080194;27;45321;-80
2021/04/21 04:18:25;;;;;;;6.38;4.32;;;;;;;9.92;77.94;98089.69;5058097;28;45522;-80
2021/04/21 04:20:52;;;;;;;5.82;3.80;;;;;;;9.72;79.51;98093.53;5057715;28;45228;-80
2021/04/21 04:23:19;;;;;;;5.20;3.88;;;;;;;9.94;79.39;98105.50;5063289;28;45323;-80
2021/04/21 04:25:47;;;;;;;5.18;3.95;;;;;;;9.89;79.91;98099.81;5063986;28;45160;-80
2021/04/21 04:28:13;;;;;;;4.80;3.80;;;;;;;9.83;79.05;98106.56;5065411;28;45289;-80
2021/04/21 04:30:40;;;;;;;5.28;3.65;;;;;;;9.78;80.21;98104.38;5063278;27;46131;-80
2021/04/21 04:33:07;;;;;;;5.25;3.85;;;;;;;9.77;80.47;98104.53;5057970;28;45241;-80
2021/04/21 04:35:35;;;;;;;4.60;3.13;;;;;;;9.59;81.66;98094.78;5069803;27;45347;-80
2021/04/21 04:38:02;;;;;;;4.35;2.83;;;;;;;9.52;82.31;98099.03;5069663;27;45411;-81
2021/04/21 04:40:29;;;;;;;5.03;3.35;;;;;;;9.54;81.94;98097.06;5055184;28;48179;-81
2021/04/21 04:42:56;;;;;;;4.97;3.13;;;;;;;9.39;83.23;98103.91;5057595;28;45307;-81
2021/04/21 04:45:26;;;;;;;4.25;3.42;;;;;;;9.40;83.25;98101.06;5057554;28;45423;-82
2021/04/21 04:47:59;;;;;;;3.80;3.05;;;;;;;9.45;83.39;98105.94;5057819;28;45389;-82
2021/04/21 04:50:25;;;;;;;5.40;3.75;;;;;;;9.28;83.90;98110.25;5057345;28;45911;-82
2021/04/21 04:52:55;;;;;;;4.45;3.72;;;;;;;9.25;83.81;98111.38;5057852;28;45474;-82
2021/04/21 04:55:23;;;;;;;5.95;3.80;;;;;;;9.34;84.44;98113.16;5062231;28;45339;-83
2021/04/21 04:57:51;;;;;;;5.13;3.70;;;;;;;9.22;86.00;98116.97;5065763;27;45305;-83
2021/04/21 05:00:19;;;;;;;4.82;3.80;;;;;;;9.16;85.60;98114.94;5057093;28;45948;-84
2021/04/21 05:03:06;;;;;;;4.72;3.47;;;;;;;9.01;86.30;98122.59;5056994;28;45955;-83
2021/04/21 05:05:34;;;;;;;7.40;5.30;;;;;;;9.04;86.65;98124.94;5066630;28;45629;-84
2021/04/21 05:08:07;;;;;;;7.53;5.30;;;;;;;9.03;87.77;98126.75;5067110;27;45945;-83
2021/04/21 05:10:53;;;;;;;6.57;5.10;;;;;;;8.93;88.22;98122.50;5069792;28;46041;-84
2021/04/21 05:13:23;;;;;;;6.65;4.90;;;;;;;9.00;86.97;98120.91;5071333;27;45398;-84
2021/04/21 05:15:51;;;;;;;7.53;4.30;;;;;;;8.91;87.39;98127.94;5065102;28;45537;-84
2021/04/21 05:18:34;;;;;;;5.68;3.55;;;;;;;8.93;87.26;98128.63;5056704;28;45530;-84
2021/04/21 05:21:31;;;;;;;4.88;3.35;;;;;;;8.99;86.62;98130.69;5060412;28;47251;-83
2021/04/21 05:24:20;;;;;;;3.28;2.33;;;;;;;8.83;85.41;98128.66;5056336;28;45461;-84
2021/04/21 05:26:55;;;;;;;3.78;2.30;;;;;;;8.70;87.42;98133.47;5061445;28;45775;-82
2021/04/21 05:29:38;;;;;;;3.60;2.67;;;;;;;8.76;86.82;98127.59;5070104;28;45380;-82
2021/04/21 05:32:41;;;;;;;4.95;2.53;;;;;;;8.81;86.60;98127.97;5056514;28;46566;-81
2021/04/21 05:35:46;;;;;;;4.45;2.22;;;;;;;8.85;86.02;98131.19;5066735;27;45448;-83
2021/04/21 05:38:50;;;;;;;3.92;2.70;;;;;;;8.79;86.95;98124.63;5057939;28;45430;-82
2021/04/21 05:42:17;;;;;;;3.58;2.28;;;;;;;8.86;86.59;98119.59;5065768;28;45278;-82
2021/04/21 05:45:10;;;;;;;3.00;2.10;;;;;;;8.97;80.83;98113.25;5033045;28;45537;-82
2021/04/21 05:47:54;;;;;;;3.33;2.40;;;;;;;9.24;82.03;98122.16;5063217;28;45298;-82
2021/04/21 05:50:44;;;;;;;6.75;3.58;;;;;;;9.08;84.80;98128.09;5058934;28;45320;-83
2021/04/21 05:53:48;;;;;;;6.20;2.80;;;;;;;9.21;83.54;98128.56;5057629;28;45261;-82
2021/04/21 05:56:42;;;;;;;4.20;2.92;;;;;;;9.17;83.50;98136.00;5061804;28;47019;-82
2021/04/21 05:59:13;;;;;;;4.03;3.15;;;;;;;9.21;83.73;98139.19;5078234;27;45447;-83
2021/04/21 06:01:46;;;;;;;4.53;3.10;;;;;;;9.12;84.06;98140.09;5066833;28;45411;-83
2021/04/21 06:04:14;;;;;;;3.83;2.65;;;;;;;9.26;84.49;98146.72;5064499;27;45617;-83
2021/04/21 06:06:40;;;;;;;5.45;3.13;;;;;;;9.32;84.67;98143.47;5065225;28;45387;-82
2021/04/21 06:09:07;;;;;;;11.00;5.68;;;;;;;9.42;85.14;98138.91;5068956;28;45546;-81
2021/04/21 06:11:33;;;;;;;69.63;43.28;;;;;;;9.47;83.95;98141.13;5078093;27;45266;-85
2021/04/21 06:14:01;;;;;;;5.50;3.60;;;;;;;9.58;82.52;98150.66;5082625;27;45358;-92
2021/04/21 06:16:29;;;;;;;5.38;4.07;;;;;;;9.66;81.52;98150.72;5064871;28;45569;-88
2021/04/21 06:19:09;;;;;;;4.50;3.28;;;;;;;9.58;83.21;98151.50;5065910;28;45511;-89
2021/04/21 06:21:38;;;;;;;5.05;3.45;;;;;;;9.63;82.81;98149.22;5065127;27;45370;-88
2021/04/21 06:24:19;;;;;;;5.28;3.38;;;;;;;9.85;82.39;98149.75;5076878;27;45411;-86
2021/04/21 06:26:45;;;;;;;5.38;3.28;;;;;;;10.01;81.83;98154.34;5066486;28;48360;-84
2021/04/21 06:29:11;;;;;;;4.40;3.22;;;;;;;9.96;79.34;98163.75;5063113;28;45617;-84
2021/04/21 06:31:38;;;;;;;5.95;3.67;;;;;;;10.30;80.10;98160.38;5063234;28;45554;-83
2021/04/21 06:34:06;;;;;;;5.85;4.00;;;;;;;10.37;78.14;98164.06;5070198;27;45598;-81
2021/04/21 06:36:41;;;;;;;6.22;4.35;;;;;;;10.51;77.96;98160.00;5074048;27;47395;-83
2021/04/21 06:39:08;;;;;;;6.40;3.90;;;;;;;10.85;77.76;98169.84;5061751;27;45531;-82
2021/04/21 06:41:34;;;;;;;6.07;5.28;;;;;;;11.17;77.98;98178.09;5066152;28;45606;-89
2021/04/21 06:43:59;;;;;;;5.93;4.80;;;;;;;11.39;78.35;98184.63;5078560;27;45569;-90
2021/04/21 06:46:25;;;;;;;7.32;6.45;;;;;;;11.64;78.31;98182.84;5072665;28;46269;-84
2021/04/21 06:48:59;;;;;;;7.82;5.20;;;;;;;11.67;76.54;98187.84;5062162;28;45447;-84
2021/04/21 06:51:27;;;;;;;6.60;5.40;;;;;;;11.86;76.21;98188.53;5059847;28;45482;-86
2021/04/21 06:53:54;;;;;;;7.10;4.90;;;;;;;12.03;75.05;98194.72;5063777;28;45491;-82
2021/04/21 06:56:26;;;;;;;6.32;5.10;;;;;;;12.21;73.98;98193.72;5064587;27;46347;-82
2021/04/21 06:58:52;;;;;;;6.22;4.85;;;;;;;12.15;73.40;98194.41;5063253;28;45459;-82
2021/04/21 07:01:24;;;;;;;7.75;6.07;;;;;;;12.59;74.14;98204.69;5056613;28;45409;-82
2021/04/21 07:03:49;;;;;;;6.07;4.93;;;;;;;12.83;72.35;98211.81;5065745;28;45378;-82
2021/04/21 07:06:15;;;;;;;8.85;6.75;;;;;;;13.01;71.20;98208.06;5074676;28;46213;-83
2021/04/21 07:08:40;;;;;;;7.15;4.90;;;;;;;13.22;70.51;98206.63;5073055;28;45265;-82
2021/04/21 07:11:10;;;;;;;6.95;5.20;;;;;;;13.33;68.73;98208.09;5076755;27;45414;-83
2021/04/21 07:13:48;;;;;;;5.88;4.50;;;;;;;13.43;67.93;98214.09;5072316;27;45699;-84
2021/04/21 07:16:19;;;;;;;5.90;4.32;;;;;;;13.89;66.85;98205.28;5076649;28;46020;-85
2021/04/21 07:18:49;;;;;;;5.35;4.50;;;;;;;14.09;64.70;98207.47;5066930;28;45392;-85
2021/04/21 07:21:16;;;;;;;5.63;4.20;;;;;;;13.90;64.10;98203.41;5061684;27;45254;-84
2021/04/21 07:23:49;;;;;;;5.43;4.45;;;;;;;13.60;63.92;98201.44;5057398;28;45260;-87
2021/04/21 07:26:15;;;;;;;7.82;4.80;;;;;;;13.48;64.25;98203.72;5064401;27;47290;-87
2021/04/21 07:28:41;;;;;;;6.00;4.60;;;;;;;13.91;64.35;98208.59;5073416;27;45428;-87
2021/04/21 07:31:17;;;;;;;8.52;5.35;;;;;;;14.15;64.43;98210.25;5075299;28;45451;-87
2021/04/21 07:33:45;;;;;;;6.80;4.97;;;;;;;14.20;64.97;98207.03;5078046;28;45315;-88
2021/04/21 07:36:28;;;;;;;7.90;5.18;;;;;;;13.85;65.15;98210.13;5067089;27;46838;-87
2021/04/21 07:38:57;;;;;;;6.85;5.38;;;;;;;13.81;63.18;98202.66;5062052;28;45462;-88
2021/04/21 07:41:35;;;;;;;7.18;6.00;;;;;;;13.41;66.08;98208.06;5075371;27;45474;-87
2021/04/21 07:44:01;;;;;;;9.15;7.00;;;;;;;13.55;65.58;98202.00;5075238;27;45718;-88
2021/04/21 07:46:27;;;;;;;9.68;8.68;;;;;;;13.64;65.85;98202.75;5064851;28;46867;-87
2021/04/21 07:48:54;;;;;;;9.90;8.90;;;;;;;13.46;65.88;98203.06;5063102;28;45355;-88
2021/04/21 07:51:21;;;;;;;7.35;6.40;;;;;;;13.59;66.35;98204.31;5061359;27;45581;-89
2021/04/21 07:54:17;;;;;;;8.27;6.88;;;;;;;13.86;65.67;98205.63;5073069;28;45726;-89
2021/04/21 07:56:51;;;;;;;7.47;5.63;;;;;;;13.84;65.45;98196.97;5069198;28;46752;-90
2021/04/21 07:59:21;;;;;;;8.00;5.72;;;;;;;13.90;65.70;98203.41;5075323;27;45237;-89
2021/04/21 08:01:48;;;;;;;8.73;7.32;;;;;;;14.25;64.29;98212.66;5076977;28;45354;-88
2021/04/21 08:04:22;;;;;;;7.93;6.50;;;;;;;14.79;62.39;98210.84;5061533;27;45308;-89
2021/04/21 08:06:50;;;;;;;8.23;7.22;;;;;;;15.89;57.98;98199.41;5068733;28;45660;-89
2021/04/21 08:09:17;;;;;;;7.95;6.85;;;;;;;16.61;55.25;98194.81;5078366;27;45485;-89
2021/04/21 08:11:43;;;;;;;7.22;5.97;;;;;;;16.13;56.39;98200.03;5065993;27;45273;-91
2021/04/21 08:14:10;;;;;;;5.75;5.13;;;;;;;15.97;56.17;98201.94;5086404;27;45558;-90
2021/04/21 08:16:36;;;;;;;6.55;4.97;;;;;;;15.86;56.95;98210.47;5066984;27;45536;-90
2021/04/21 08:19:13;;;;;;;7.70;5.22;;;;;;;16.08;57.63;98210.50;5073553;28;45898;-88
2021/04/21 08:21:45;;;;;;;7.85;4.97;;;;;;;16.46;56.60;98211.03;5070811;28;45253;-88
2021/04/21 08:24:15;;;;;;;7.32;5.43;;;;;;;18.61;50.29;98207.44;5075939;27;45507;-89
2021/04/21 08:26:49;;;;;;;6.55;5.25;;;;;;;18.95;49.12;98211.69;5064753;27;45481;-86
2021/04/21 08:29:16;;;;;;;7.28;5.63;;;;;;;18.03;50.26;98208.88;5068520;28;45457;-84
2021/04/21 08:31:45;;;;;;;7.68;5.30;;;;;;;19.27;50.79;98208.31;5071692;28;45408;-84
2021/04/21 08:34:12;;;;;;;6.28;4.93;;;;;;;19.14;48.80;98205.66;5064009;28;45547;-86
2021/04/21 08:36:37;;;;;;;6.05;4.30;;;;;;;18.09;52.23;98203.47;5066817;27;46142;-88
2021/04/21 08:39:04;;;;;;;6.07;4.30;;;;;;;17.66;50.45;98193.03;5061815;28;45442;-81
2021/04/21 08:41:34;;;;;;;5.53;3.85;;;;;;;17.15;54.44;98205.88;5060258;28;45776;-83
2021/04/21 08:44:00;;;;;;;4.47;3.97;;;;;;;17.07;53.52;98200.69;5075041;28;45536;-83
2021/04/21 08:46:26;;;;;;;5.00;4.50;;;;;;;17.85;52.66;98195.97;5078259;28;45688;-84
2021/04/21 08:48:53;;;;;;;5.70;4.22;;;;;;;18.05;51.47;98202.22;5065964;27;45325;-87
2021/04/21 08:51:20;;;;;;;5.45;4.10;;;;;;;18.00;52.79;98188.56;5072576;28;45343;-83
2021/04/21 08:53:51;;;;;;;7.22;4.80;;;;;;;17.73;50.43;98193.06;5056884;28;45428;-83
2021/04/21 08:56:19;;;;;;;5.03;4.30;;;;;;;18.54;52.08;98196.66;5072896;28;45660;-85
2021/04/21 08:58:47;;;;;;;4.72;4.00;;;;;;;18.53;48.28;98195.81;5072400;28;45528;-85
2021/04/21 09:01:13;;;;;;;6.95;4.60;;;;;;;18.55;49.22;98195.63;5069076;28;45819;-83
2021/04/21 09:03:43;;;;;;;4.80;3.72;;;;;;;20.54;47.74;98189.66;5058470;28;45217;-84
2021/04/21 09:06:09;;;;;;;5.00;3.87;;;;;;;20.58;44.88;98185.47;5057915;28;46228;-87
2021/04/21 09:08:37;;;;;;;4.75;3.60;;;;;;;19.25;47.31;98173.50;5057425;28;45300;-86
2021/04/21 09:11:04;;;;;;;4.30;3.67;;;;;;;18.82;48.06;98190.19;5058681;28;45471;-88
2021/04/21 09:13:29;;;;;;;4.72;3.60;;;;;;;18.57;48.43;98184.66;5066721;27;45556;-88
2021/04/21 09:15:56;;;;;;;5.50;3.50;;;;;;;19.24;47.25;98179.09;5075158;27;45945;-87
2021/04/21 09:18:27;;;;;;;5.05;3.95;;;;;;;19.46;46.73;98178.81;5061353;27;45401;-83
2021/04/21 09:20:52;;;;;;;;;;;;;;;21.41;43.38;98177.06;5057351;28;45304;-87
2021/04/21 09:23:19;;;;;;;4.28;3.28;;;;;;;25.12;39.47;98175.88;5058701;28;45227;-87
2021/04/21 09:25:53;;;;;;;7.28;3.05;;;;;;;22.40;37.85;98183.94;5063147;28;45476;-85
2021/04/21 09:28:23;;;;;;;5.28;3.30;;;;;;;23.88;36.56;98172.13;5077063;27;45167;-84
2021/04/21 09:30:56;;;;;;;3.30;2.88;;;;;;;24.81;35.00;98175.50;5072436;28;45503;-88
2021/04/21 09:33:26;;;;;;;5.18;3.20;;;;;;;24.99;33.64;98169.75;5059853;28;45568;-87
2021/04/21 09:35:51;;;;;;;4.18;2.80;;;;;;;22.00;39.15;98173.78;5064867;27;45603;-88
2021/04/21 09:38:27;;;;;;;3.70;2.83;;;;;;;21.16;39.83;98169.06;5069923;28;45672;-85
2021/04/21 09:41:14;;;;;;;4.43;3.08;;;;;;;19.72;45.05;98158.91;5071377;28;45428;-85
2021/04/21 09:43:41;;;;;;;8.40;3.58;;;;;;;19.97;43.74;98160.88;5069173;27;45575;-86
2021/04/21 09:46:19;;;;;;;3.58;2.50;;;;;;;21.85;42.07;98155.25;5085622;27;48070;-85
2021/04/21 09:48:46;;;;;;;3.67;2.40;;;;;;;20.43;41.36;98161.53;5065309;27;45530;-87
2021/04/21 09:51:17;;;;;;;4.07;2.72;;;;;;;20.46;43.44;98154.84;5078194;27;45438;-85
2021/04/21 09:53:44;;;;;;;3.42;2.22;;;;;;;21.82;41.81;98151.16;5079884;27;45396;-87
2021/04/21 09:56:15;;;;;;;3.15;2.13;;;;;;;21.26;38.66;98151.28;5068680;28;45526;-87
2021/04/21 09:59:01;;;;;;;6.35;2.50;;;;;;;22.15;40.42;98159.81;5060607;28;45328;-88
2021/04/21 10:01:32;;;;;;;2.53;2.10;;;;;;;22.42;37.80;98159.34;5073407;28;45435;-86
2021/04/21 10:04:19;;;;;;;5.55;2.67;;;;;;;21.58;40.15;98148.31;5062542;27;45452;-88
2021/04/21 10:06:55;;;;;;;4.13;2.38;;;;;;;20.45;41.90;98153.19;5060244;28;46442;-85
2021/04/21 10:09:34;;;;;;;4.20;2.53;;;;;;;20.35;41.07;98143.72;5061015;28;45355;-86
2021/04/21 10:12:21;;;;;;;3.38;2.75;;;;;;;19.49;42.17;98152.22;5065748;28;45575;-88
2021/04/21 10:15:01;;;;;;;4.13;2.90;;;;;;;18.57;44.20;98147.78;5081518;27;45429;-89
2021/04/21 10:17:30;;;;;;;4.00;2.45;;;;;;;19.44;45.37;98141.25;5069357;28;46559;-87
2021/04/21 10:19:59;;;;;;;3.57;2.60;;;;;;;19.91;45.09;98142.88;5064706;27;45504;-88
2021/04/21 10:22:25;;;;;;;4.13;2.63;;;;;;;19.20;46.81;98135.56;5080302;27;45351;-87
2021/04/21 10:24:53;;;;;;;3.22;2.50;;;;;;;19.02;45.08;98140.84;5079406;27;45486;-88
2021/04/21 10:27:19;;;;;;;5.03;2.65;;;;;;;18.55;45.85;98139.06;5073539;27;45518;-88
2021/04/21 10:29:46;;;;;;;4.00;2.67;;;;;;;18.16;46.63;98140.78;5077418;27;45381;-85
2021/04/21 10:32:15;;;;;;;3.55;2.58;;;;;;;17.84;46.79;98138.69;5080208;27;45387;-90
2021/04/21 10:34:43;;;;;;;4.05;2.60;;;;;;;17.09;47.72;98127.97;5074427;27;45558;-91
2021/04/21 10:37:10;;;;;;;4.35;3.13;;;;;;;16.92;49.29;98139.84;5074553;28;45415;-90
2021/04/21 10:39:37;;;;;;;4.57;2.60;;;;;;;17.21;49.98;98137.91;5063586;27;45460;-90
2021/04/21 10:42:07;;;;;;;4.75;2.60;;;;;;;16.89;47.84;98134.88;5071492;27;45431;-91
2021/04/21 10:44:34;;;;;;;4.20;2.70;;;;;;;16.29;48.64;98134.53;5077917;28;45576;-91
2021/04/21 10:47:02;;;;;;;4.93;2.80;;;;;;;16.40;49.98;98125.94;5066206;28;46172;-87
2021/04/21 10:49:50;;;;;;;3.35;2.33;;;;;;;16.52;47.91;98128.91;5064637;28;45365;-91
2021/04/21 10:52:39;;;;;;;3.92;2.80;;;;;;;16.75;47.65;98127.78;5068276;28;45501;-89
2021/04/21 10:55:08;;;;;;;2.85;2.47;;;;;;;17.08;48.25;98127.13;5074557;27;45603;-86
2021/04/21 10:57:38;;;;;;;3.38;2.15;;;;;;;16.98;49.07;98121.31;5092968;27;46282;-90
2021/04/21 11:00:11;;;;;;;3.40;2.40;;;;;;;17.56;47.52;98126.22;5078785;27;45444;-88
2021/04/21 11:02:40;;;;;;;4.30;2.60;;;;;;;17.97;45.29;98123.56;5059984;28;45319;-89
2021/04/21 11:05:11;;;;;;;2.75;2.10;;;;;;;17.89;45.66;98124.59;5065363;28;45334;-91
2021/04/21 11:07:38;;;;;;;3.17;2.20;;;;;;;17.86;46.71;98122.31;5061249;27;45374;-88
2021/04/21 11:10:09;;;;;;;3.90;2.55;;;;;;;17.91;45.23;98119.84;5059889;28;45410;-92
2021/04/21 11:13:05;;;;;;;;;;;;;;;17.64;45.76;98117.94;5060576;27;45424;-94
2021/04/21 11:15:36;;;;;;;3.22;2.45;;;;;;;18.20;46.53;98118.63;5059549;28;45374;-88
2021/04/21 11:18:28;;;;;;;6.75;2.30;;;;;;;17.65;45.92;98116.09;5059914;28;46443;-92
2021/04/21 11:21:02;;;;;;;3.45;2.47;;;;;;;17.25;48.47;98114.16;5060505;28;45475;-87
2021/04/21 11:23:55;;;;;;;3.63;2.20;;;;;;;17.35;47.26;98103.03;5068914;27;45478;-88
2021/04/21 11:26:23;;;;;;;3.08;2.25;;;;;;;16.86;47.40;98108.41;5071881;28;45789;-89
2021/04/21 11:29:06;;;;;;;2.50;2.03;;;;;;;16.39;47.41;98120.78;5057517;28;46899;-89
2021/04/21 11:31:40;;;;;;;4.05;2.13;;;;;;;16.49;46.18;98115.88;5059880;28;45343;-87
2021/04/21 11:34:20;;;;;;;2.85;2.00;;;;;;;16.29;48.41;98116.56;5073519;28;45269;-92
2021/04/21 11:36:55;;;;;;;2.93;1.87;;;;;;;16.29;49.20;98113.06;5077068;27;45250;-87
2021/04/21 11:39:42;;;;;;;2.65;1.70;;;;;;;15.83;47.88;98109.78;5062895;28;48009;-88
2021/04/21 11:42:32;;;;;;;2.90;1.70;;;;;;;16.29;49.21;98103.16;5059454;28;45380;-92
2021/04/21 11:45:27;;;;;;;3.38;1.70;;;;;;;16.51;47.50;98102.25;5059266;28;45344;-91
2021/04/21 11:48:01;;;;;;;2.80;1.77;;;;;;;16.69;47.30;98099.06;5060353;28;45547;-89
2021/04/21 11:50:29;;;;;;;3.03;1.58;;;;;;;16.64;46.37;98096.94;5062147;28;45509;-85
2021/04/21 11:53:07;;;;;;;4.82;2.13;;;;;;;16.91;46.36;98099.78;5057855;28;45483;-88
2021/04/21 11:55:40;;;;;;;3.33;1.90;;;;;;;17.04;46.45;98099.00;5058290;28;45280;-83
2021/04/21 11:58:14;;;;;;;4.20;2.08;;;;;;;17.47;45.82;98092.50;5063674;28;45341;-83
2021/04/21 12:00:41;;;;;;;4.55;2.13;;;;;;;18.12;45.68;98091.13;5062911;27;45588;-82
2021/04/21 12:03:27;;;;;;;3.75;2.15;;;;;;;17.99;42.61;98091.91;5058502;28;45284;-89
2021/04/21 12:05:56;;;;;;;3.67;2.00;;;;;;;17.49;42.79;98080.53;5071348;28;45373;-87